createdAt,value
2023-05-04T00:00:39.414Z,101310.47
2023-05-04T00:03:07.164Z,101316.78
2023-05-04T00:05:34.758Z,101325.78
2023-05-04T00:08:02.156Z,101329.13
2023-05-04T00:10:29.520Z,101317.00
2023-05-04T00:12:57.057Z,101325.81
2023-05-04T00:15:24.575Z,101330.34
2023-05-04T00:17:52.103Z,101311.69
2023-05-04T00:20:19.492Z,101319.56
2023-05-04T00:22:46.883Z,101316.13
2023-05-04T00:25:14.227Z,101311.63
2023-05-04T00:27:41.593Z,101317.00
2023-05-04T00:30:09.362Z,101309.94
2023-05-04T00:32:36.766Z,101304.44
2023-05-04T00:35:04.384Z,101308.41
2023-05-04T00:37:31.774Z,101314.06
2023-05-04T00:39:59.199Z,101302.38
2023-05-04T00:42:26.764Z,101306.25
2023-05-04T00:44:54.902Z,101295.53
2023-05-04T00:47:23.105Z,101293.53
2023-05-04T00:49:52.196Z,101293.06
2023-05-04T00:52:20.886Z,101301.50
2023-05-04T00:54:48.446Z,101305.06
2023-05-04T00:57:16.222Z,101297.53
2023-05-04T00:59:43.733Z,101307.25
2023-05-04T01:02:11.348Z,101303.50
2023-05-04T01:04:38.686Z,101304.31
2023-05-04T01:07:27.074Z,101295.47
2023-05-04T01:10:02.208Z,101292.34
2023-05-04T01:12:39.137Z,101303.69
2023-05-04T01:15:09.322Z,101306.09
2023-05-04T01:17:36.887Z,101304.41
2023-05-04T01:20:05.004Z,101296.13
2023-05-04T01:22:32.786Z,101300.78
2023-05-04T01:25:00.233Z,101306.19
2023-05-04T01:27:42.717Z,101295.72
2023-05-04T01:30:36.037Z,101303.03
2023-05-04T01:33:04.827Z,101296.75
2023-05-04T01:35:32.240Z,101299.34
2023-05-04T01:38:00.000Z,101298.63
2023-05-04T01:40:27.376Z,101293.34
2023-05-04T01:42:54.926Z,101307.81
2023-05-04T01:45:22.670Z,101285.78
2023-05-04T01:47:50.102Z,101305.28
2023-05-04T01:50:17.508Z,101295.59
2023-05-04T01:52:44.932Z,101303.31
2023-05-04T01:55:12.309Z,101298.06
2023-05-04T01:57:39.727Z,101301.44
2023-05-04T02:00:08.079Z,101301.63
2023-05-04T02:02:45.372Z,101296.53
2023-05-04T02:05:17.269Z,101297.50
2023-05-04T02:07:44.633Z,101298.38
2023-05-04T02:10:12.160Z,101289.78
2023-05-04T02:12:39.660Z,101294.25
2023-05-04T02:15:07.530Z,101295.13
2023-05-04T02:17:34.993Z,101291.00
2023-05-04T02:20:04.679Z,101294.66
2023-05-04T02:22:32.600Z,101306.38
2023-05-04T02:24:59.989Z,101295.66
2023-05-04T02:27:27.409Z,101303.53
2023-05-04T02:29:54.837Z,101289.97
2023-05-04T02:32:22.203Z,101289.72
2023-05-04T02:34:50.948Z,101296.69
2023-05-04T02:37:18.502Z,101296.00
2023-05-04T02:39:45.963Z,101290.50
2023-05-04T02:42:14.236Z,101296.81
2023-05-04T02:44:41.932Z,101294.06
2023-05-04T02:47:10.116Z,101293.56
2023-05-04T02:49:37.538Z,101286.41
2023-05-04T02:52:04.949Z,101286.47
2023-05-04T02:54:32.291Z,101284.72
2023-05-04T02:56:59.684Z,101294.25
2023-05-04T02:59:27.074Z,101282.91
2023-05-04T03:01:54.576Z,101292.75
2023-05-04T03:04:22.053Z,101300.72
2023-05-04T03:07:15.192Z,101297.75
2023-05-04T03:09:43.490Z,101290.88
2023-05-04T03:12:11.594Z,101292.44
2023-05-04T03:14:40.305Z,101301.38
2023-05-04T03:17:08.283Z,101309.56
2023-05-04T03:19:36.488Z,101309.00
2023-05-04T03:22:04.723Z,101301.72
2023-05-04T03:24:35.169Z,101319.44
2023-05-04T03:27:02.710Z,101303.28
2023-05-04T03:29:30.047Z,101309.00
2023-05-04T03:32:01.048Z,101299.78
2023-05-04T03:34:35.463Z,101300.13
2023-05-04T03:37:06.666Z,101296.00
2023-05-04T03:39:34.201Z,101302.88
2023-05-04T03:42:01.504Z,101304.69
2023-05-04T03:44:36.298Z,101303.03
2023-05-04T03:47:03.725Z,101307.47
2023-05-04T03:49:35.054Z,101296.88
2023-05-04T03:52:02.546Z,101301.50
2023-05-04T03:54:30.119Z,101298.78
2023-05-04T03:56:57.776Z,101303.22
2023-05-04T03:59:25.609Z,101304.19
2023-05-04T04:01:53.695Z,101299.50
2023-05-04T04:04:21.605Z,101302.00
2023-05-04T04:06:49.246Z,101294.47
2023-05-04T04:09:16.624Z,101298.00
2023-05-04T04:11:44.084Z,101312.00
2023-05-04T04:14:11.815Z,101306.69
2023-05-04T04:16:39.202Z,101299.56
2023-05-04T04:19:07.673Z,101311.00
2023-05-04T04:21:35.227Z,101314.72
2023-05-04T04:24:02.707Z,101317.59
2023-05-04T04:26:30.262Z,101307.34
2023-05-04T04:28:57.775Z,101315.56
2023-05-04T04:31:25.504Z,101318.41
2023-05-04T04:33:52.913Z,101314.53
2023-05-04T04:36:20.810Z,101309.31
2023-05-04T04:38:48.398Z,101320.69
2023-05-04T04:41:16.583Z,101318.47
2023-05-04T04:43:44.216Z,101321.44
2023-05-04T04:46:11.785Z,101325.09
2023-05-04T04:48:39.194Z,101317.31
2023-05-04T04:51:10.334Z,101328.66
2023-05-04T04:53:38.365Z,101324.22
2023-05-04T04:56:07.908Z,101319.81
2023-05-04T04:58:35.681Z,101310.47
2023-05-04T05:01:08.227Z,101326.31
2023-05-04T05:03:36.200Z,101334.84
2023-05-04T05:06:04.118Z,101328.50
2023-05-04T05:08:32.909Z,101330.06
2023-05-04T05:11:00.299Z,101324.59
2023-05-04T05:13:27.618Z,101333.56
2023-05-04T05:15:54.980Z,101333.53
2023-05-04T05:18:22.352Z,101337.00
2023-05-04T05:20:49.783Z,101330.91
2023-05-04T05:23:17.556Z,101333.44
2023-05-04T05:25:44.908Z,101328.56
2023-05-04T05:28:14.070Z,101336.38
2023-05-04T05:30:41.438Z,101324.22
2023-05-04T05:33:09.025Z,101324.13
2023-05-04T05:35:36.499Z,101330.84
2023-05-04T05:38:03.944Z,101328.03
2023-05-04T05:40:31.365Z,101321.38
2023-05-04T05:42:58.800Z,101326.38
2023-05-04T05:45:26.460Z,101327.59
2023-05-04T05:47:53.910Z,101309.91
2023-05-04T05:50:23.695Z,101333.16
2023-05-04T05:52:51.249Z,101340.00
2023-05-04T05:55:18.649Z,101321.03
2023-05-04T05:57:46.028Z,101329.56
2023-05-04T06:00:14.080Z,101324.66
2023-05-04T06:02:42.778Z,101323.66
2023-05-04T06:05:10.917Z,101329.72
2023-05-04T06:07:38.313Z,101326.16
2023-05-04T06:10:06.216Z,101330.81
2023-05-04T06:12:33.932Z,101337.53
2023-05-04T06:15:01.547Z,101327.66
2023-05-04T06:17:30.611Z,101318.22
2023-05-04T06:19:57.997Z,101315.94
2023-05-04T06:22:25.376Z,101323.72
2023-05-04T06:24:55.683Z,101318.78
2023-05-04T06:27:26.026Z,101318.31
2023-05-04T06:29:53.399Z,101318.84
2023-05-04T06:32:20.855Z,101315.78
2023-05-04T06:34:48.199Z,101317.84
2023-05-04T06:37:16.227Z,101316.72
2023-05-04T06:39:43.622Z,101317.22
2023-05-04T06:42:12.243Z,101323.28
2023-05-04T06:44:41.436Z,101320.25
2023-05-04T06:47:08.845Z,101318.91
2023-05-04T06:49:36.451Z,101311.81
2023-05-04T06:52:03.996Z,101330.84
2023-05-04T06:54:31.921Z,101324.94
2023-05-04T06:56:59.228Z,101326.56
2023-05-04T06:59:26.743Z,101331.94
2023-05-04T07:01:54.116Z,101327.28
2023-05-04T07:04:23.388Z,101336.63
2023-05-04T07:06:51.227Z,101336.19
2023-05-04T07:09:20.248Z,101342.53
2023-05-04T07:11:48.690Z,101341.72
2023-05-04T07:14:16.543Z,101331.28
2023-05-04T07:16:44.089Z,101334.66
2023-05-04T07:19:11.589Z,101344.41
2023-05-04T07:21:39.051Z,101333.00
2023-05-04T07:24:07.440Z,101329.81
2023-05-04T07:26:34.806Z,101332.00
2023-05-04T07:29:02.215Z,101328.28
2023-05-04T07:31:30.549Z,101334.25
2023-05-04T07:33:58.271Z,101326.69
2023-05-04T07:36:26.741Z,101334.88
2023-05-04T07:38:54.477Z,101336.25
2023-05-04T07:41:22.119Z,101321.53
2023-05-04T07:43:49.524Z,101319.88
2023-05-04T07:46:17.187Z,101325.69
2023-05-04T07:48:44.587Z,101328.06
2023-05-04T07:51:16.308Z,101320.56
2023-05-04T07:53:43.873Z,101322.09
2023-05-04T07:56:12.820Z,101324.91
2023-05-04T07:58:40.537Z,101334.78
2023-05-04T08:01:08.034Z,101320.88
2023-05-04T08:03:35.490Z,101329.72
2023-05-04T08:06:02.865Z,101323.53
2023-05-04T08:08:30.765Z,101323.44
2023-05-04T08:11:11.714Z,101316.00
2023-05-04T08:13:40.519Z,101328.38
2023-05-04T08:16:09.552Z,101316.25
2023-05-04T08:18:37.249Z,101310.72
2023-05-04T08:21:05.057Z,101314.75
2023-05-04T08:23:33.633Z,101327.78
2023-05-04T08:26:04.946Z,101325.88
2023-05-04T08:28:37.844Z,101322.63
2023-05-04T08:31:05.409Z,101332.53
2023-05-04T08:33:33.532Z,101326.97
2023-05-04T08:36:00.995Z,101333.88
2023-05-04T08:38:29.872Z,101337.03
2023-05-04T08:40:57.603Z,101329.91
2023-05-04T08:43:24.929Z,101336.38
2023-05-04T08:45:52.746Z,101326.22
2023-05-04T08:48:20.202Z,101327.44
2023-05-04T08:50:48.490Z,101338.59
2023-05-04T08:53:19.095Z,101343.41
2023-05-04T08:55:47.702Z,101330.56
2023-05-04T08:58:17.476Z,101343.72
2023-05-04T09:00:45.927Z,101331.97
2023-05-04T09:03:14.911Z,101329.66
2023-05-04T09:05:42.645Z,101330.94
2023-05-04T09:08:10.053Z,101340.03
2023-05-04T09:10:37.622Z,101334.03
2023-05-04T09:13:05.273Z,101333.03
2023-05-04T09:15:33.148Z,101329.44
2023-05-04T09:18:09.941Z,101322.19
2023-05-04T09:20:45.314Z,101319.69
2023-05-04T09:23:14.290Z,101329.69
2023-05-04T09:25:52.086Z,101318.56
2023-05-04T09:28:21.642Z,101312.00
2023-05-04T09:30:49.214Z,101321.75
2023-05-04T09:33:17.049Z,101316.06
2023-05-04T09:35:44.666Z,101319.88
2023-05-04T09:38:12.073Z,101318.13
2023-05-04T09:40:42.157Z,101317.97
2023-05-04T09:43:10.899Z,101321.09
2023-05-04T09:45:43.889Z,101315.06
2023-05-04T09:48:22.138Z,101315.56
2023-05-04T09:50:51.369Z,101315.38
2023-05-04T09:53:22.097Z,101318.78
2023-05-04T09:56:12.494Z,101309.75
2023-05-04T09:58:40.701Z,101312.84
2023-05-04T10:01:09.133Z,101313.63
2023-05-04T10:03:36.641Z,101299.53
2023-05-04T10:06:09.191Z,101310.59
2023-05-04T10:08:37.420Z,101308.78
2023-05-04T10:11:05.421Z,101304.53
2023-05-04T10:13:32.803Z,101303.66
2023-05-04T10:16:12.561Z,101295.84
2023-05-04T10:18:55.057Z,101295.75
2023-05-04T10:21:26.198Z,101298.13
2023-05-04T10:24:16.606Z,101288.78
2023-05-04T10:27:09.784Z,101297.22
2023-05-04T10:29:38.215Z,101282.66
2023-05-04T10:32:08.005Z,101283.72
2023-05-04T10:34:35.679Z,101287.97
2023-05-04T10:37:04.188Z,101270.94
2023-05-04T10:39:34.196Z,101274.22
2023-05-04T10:42:03.857Z,101277.81
2023-05-04T10:44:55.044Z,101268.66
2023-05-04T10:47:32.600Z,101262.66
2023-05-04T10:50:08.406Z,101260.25
2023-05-04T10:52:49.635Z,101261.50
2023-05-04T10:55:18.211Z,101255.63
2023-05-04T10:57:54.829Z,101267.31
2023-05-04T11:00:23.078Z,101260.25
2023-05-04T11:02:50.767Z,101249.28
2023-05-04T11:05:20.191Z,101250.47
2023-05-04T11:07:53.133Z,101249.78
2023-05-04T11:10:26.257Z,101245.19
2023-05-04T11:12:55.867Z,101252.03
2023-05-04T11:15:23.289Z,101238.75
2023-05-04T11:17:52.565Z,101249.03
2023-05-04T11:20:20.745Z,101239.63
2023-05-04T11:22:48.997Z,101237.22
2023-05-04T11:25:17.240Z,101242.59
2023-05-04T11:27:44.636Z,101245.34
2023-05-04T11:30:12.612Z,101247.84
2023-05-04T11:32:46.716Z,101241.59
2023-05-04T11:35:40.443Z,101238.19
2023-05-04T11:38:08.307Z,101245.25
2023-05-04T11:40:37.232Z,101241.66
2023-05-04T11:43:04.909Z,101240.34
2023-05-04T11:45:36.543Z,101237.66
2023-05-04T11:48:05.212Z,101234.59
2023-05-04T11:50:32.731Z,101223.59
2023-05-04T11:53:13.892Z,101221.66
2023-05-04T11:55:42.095Z,101215.25
2023-05-04T11:58:11.551Z,101218.94
2023-05-04T12:00:49.732Z,101215.94
2023-05-04T12:03:27.846Z,101220.28
2023-05-04T12:06:03.538Z,101206.25
2023-05-04T12:08:33.918Z,101207.63
2023-05-04T12:11:20.526Z,101201.22
2023-05-04T12:13:49.894Z,101204.59
2023-05-04T12:16:21.020Z,101217.13
2023-05-04T12:18:48.520Z,101199.56
2023-05-04T12:21:18.638Z,101203.84
2023-05-04T12:23:47.001Z,101207.31
2023-05-04T12:26:17.299Z,101204.81
2023-05-04T12:28:46.285Z,101205.78
2023-05-04T12:31:13.692Z,101206.16
2023-05-04T12:33:41.085Z,101205.19
2023-05-04T12:36:08.880Z,101197.28
2023-05-04T12:38:37.891Z,101204.53
2023-05-04T12:41:07.515Z,101199.13
2023-05-04T12:43:34.901Z,101188.56
2023-05-04T12:46:02.448Z,101185.75
2023-05-04T12:48:33.080Z,101181.69
2023-05-04T12:51:01.589Z,101185.66
2023-05-04T12:53:31.597Z,101187.06
2023-05-04T12:56:00.369Z,101173.28
2023-05-04T12:58:28.361Z,101183.50
2023-05-04T13:00:56.709Z,101179.72
2023-05-04T13:03:24.356Z,101178.84
2023-05-04T13:05:52.407Z,101170.06
2023-05-04T13:08:20.021Z,101176.28
2023-05-04T13:10:47.983Z,101172.09
2023-05-04T13:13:17.781Z,101169.19
2023-05-04T13:15:45.535Z,101163.31
2023-05-04T13:18:13.256Z,101155.28
2023-05-04T13:20:40.998Z,101146.53
2023-05-04T13:23:08.384Z,101144.13
2023-05-04T13:25:35.784Z,101147.31
2023-05-04T13:28:03.491Z,101145.09
2023-05-04T13:30:30.987Z,101148.41
2023-05-04T13:32:58.469Z,101141.25
2023-05-04T13:35:26.122Z,101136.97
2023-05-04T13:37:53.605Z,101133.78
2023-05-04T13:40:21.038Z,101130.69
2023-05-04T13:42:48.392Z,101134.38
2023-05-04T13:45:15.804Z,101128.19
2023-05-04T13:47:44.096Z,101134.66
2023-05-04T13:50:11.496Z,101123.81
2023-05-04T13:52:38.846Z,101119.88
2023-05-04T13:55:06.836Z,101114.13
2023-05-04T13:57:34.319Z,101124.50
2023-05-04T14:00:07.915Z,101113.56
2023-05-04T14:02:38.690Z,101109.09
2023-05-04T14:05:07.783Z,101106.41
2023-05-04T14:07:35.869Z,101107.28
2023-05-04T14:10:03.972Z,101102.13
2023-05-04T14:12:32.358Z,101103.06
2023-05-04T14:15:00.905Z,101104.44
2023-05-04T14:17:28.257Z,101094.69
2023-05-04T14:19:56.195Z,101095.34
2023-05-04T14:22:23.524Z,101096.91
2023-05-04T14:24:51.198Z,101089.63
2023-05-04T14:27:18.539Z,101091.28
2023-05-04T14:29:47.779Z,101089.31
2023-05-04T14:32:15.664Z,101090.63
2023-05-04T14:34:43.048Z,101085.19
2023-05-04T14:37:10.680Z,101090.06
2023-05-04T14:39:39.473Z,101081.41
2023-05-04T14:42:06.871Z,101081.16
2023-05-04T14:44:34.251Z,101076.41
2023-05-04T14:47:04.821Z,101081.94
2023-05-04T14:49:37.161Z,101068.94
2023-05-04T14:52:05.140Z,101071.28
2023-05-04T14:54:32.576Z,101067.59
2023-05-04T14:57:00.203Z,101057.63
2023-05-04T14:59:27.673Z,101059.81
2023-05-04T15:01:55.764Z,101059.72
2023-05-04T15:04:23.216Z,101054.41
2023-05-04T15:06:52.268Z,101052.78
2023-05-04T15:09:26.628Z,101057.63
2023-05-04T15:11:54.279Z,101051.53
2023-05-04T15:14:21.954Z,101050.25
2023-05-04T15:16:49.359Z,101046.94
2023-05-04T15:19:16.753Z,101041.38
2023-05-04T15:21:44.144Z,101032.72
2023-05-04T15:24:11.577Z,101038.88
2023-05-04T15:26:39.045Z,101047.50
2023-05-04T15:29:06.799Z,101047.31
2023-05-04T15:31:34.171Z,101053.97
2023-05-04T15:34:01.882Z,101048.84
2023-05-04T15:36:31.722Z,101037.53
2023-05-04T15:38:59.133Z,101045.47
2023-05-04T15:41:27.560Z,101038.22
2023-05-04T15:43:55.367Z,101038.59
2023-05-04T15:46:22.858Z,101037.25
2023-05-04T15:48:50.335Z,101042.66
2023-05-04T15:51:18.831Z,101036.47
2023-05-04T15:53:46.777Z,101032.69
2023-05-04T15:56:15.510Z,101029.72
2023-05-04T15:58:45.034Z,101029.06
2023-05-04T16:01:14.645Z,101019.88
2023-05-04T16:03:43.223Z,101030.75
2023-05-04T16:06:35.894Z,101025.47
2023-05-04T16:09:03.241Z,101030.63
2023-05-04T16:11:30.700Z,101019.81
2023-05-04T16:13:58.041Z,101017.34
2023-05-04T16:16:26.487Z,101024.81
2023-05-04T16:18:53.845Z,101032.63
2023-05-04T16:21:21.343Z,101023.84
2023-05-04T16:23:48.850Z,101028.72
2023-05-04T16:26:16.664Z,101017.09
2023-05-04T16:28:45.313Z,101020.66
2023-05-04T16:31:12.939Z,101022.69
2023-05-04T16:33:47.123Z,101018.22
2023-05-04T16:36:15.320Z,101015.50
2023-05-04T16:38:42.696Z,101012.47
2023-05-04T16:41:10.184Z,101008.97
2023-05-04T16:43:37.539Z,101002.69
2023-05-04T16:46:05.031Z,101015.16
2023-05-04T16:48:32.518Z,101004.63
2023-05-04T16:50:59.924Z,101009.94
2023-05-04T16:53:27.671Z,101012.00
2023-05-04T16:55:54.987Z,100995.34
2023-05-04T16:58:22.455Z,101010.63
2023-05-04T17:00:49.812Z,101023.59
2023-05-04T17:03:17.330Z,101000.78
2023-05-04T17:05:44.827Z,101022.63
2023-05-04T17:08:12.665Z,101013.06
2023-05-04T17:10:40.183Z,101025.94
2023-05-04T17:13:07.685Z,101011.38
2023-05-04T17:15:35.123Z,101019.50
2023-05-04T17:18:02.507Z,101021.13
2023-05-04T17:20:32.080Z,101009.16
2023-05-04T17:22:59.980Z,101012.94
2023-05-04T17:25:27.653Z,101005.09
2023-05-04T17:27:55.385Z,101018.47
2023-05-04T17:30:23.019Z,101008.13
2023-05-04T17:32:51.261Z,101021.44
2023-05-04T17:35:26.511Z,101020.03
2023-05-04T17:37:57.884Z,101023.41
2023-05-04T17:40:27.745Z,101029.50
2023-05-04T17:42:56.112Z,101026.16
2023-05-04T17:45:23.846Z,101036.38
2023-05-04T17:47:51.991Z,101032.53
2023-05-04T17:50:20.044Z,101039.19
2023-05-04T17:52:58.121Z,101029.13
2023-05-04T17:55:25.774Z,101021.09
2023-05-04T17:57:54.271Z,101036.88
2023-05-04T18:00:22.293Z,101038.88
2023-05-04T18:02:49.758Z,101050.66
2023-05-04T18:05:17.261Z,101050.88
2023-05-04T18:07:44.678Z,101046.59
2023-05-04T18:10:12.093Z,101057.72
2023-05-04T18:12:39.605Z,101066.97
2023-05-04T18:15:09.052Z,101063.59
2023-05-04T18:17:37.990Z,101063.72
2023-05-04T18:20:08.276Z,101076.53
2023-05-04T18:22:36.121Z,101073.25
2023-05-04T18:25:03.842Z,101080.78
2023-05-04T18:27:33.402Z,101079.31
2023-05-04T18:30:01.639Z,101078.22
2023-05-04T18:32:29.351Z,101076.41
2023-05-04T18:34:57.995Z,101075.19
2023-05-04T18:37:25.644Z,101083.41
2023-05-04T18:39:53.061Z,101070.84
2023-05-04T18:42:20.509Z,101088.22
2023-05-04T18:44:47.944Z,101092.06
2023-05-04T18:47:15.280Z,101089.75
2023-05-04T18:49:44.393Z,101101.59
2023-05-04T18:52:11.795Z,101101.31
2023-05-04T18:54:39.122Z,101108.38
2023-05-04T18:57:06.843Z,101106.91
2023-05-04T18:59:35.038Z,101096.53
2023-05-04T19:02:02.661Z,101100.09
2023-05-04T19:04:30.076Z,101115.19
2023-05-04T19:06:58.134Z,101106.66
2023-05-04T19:09:25.739Z,101117.66
2023-05-04T19:11:53.129Z,101135.06
2023-05-04T19:14:21.622Z,101136.47
2023-05-04T19:16:48.997Z,101140.31
2023-05-04T19:19:16.465Z,101142.28
2023-05-04T19:21:44.039Z,101138.03
2023-05-04T19:24:11.457Z,101156.75
2023-05-04T19:26:39.744Z,101156.94
2023-05-04T19:29:07.105Z,101155.44
2023-05-04T19:31:34.608Z,101159.19
2023-05-04T19:34:02.114Z,101160.56
2023-05-04T19:39:21.799Z,101177.44
2023-05-04T19:41:49.212Z,101158.13
2023-05-04T19:44:16.533Z,101173.50
2023-05-04T19:46:45.436Z,101180.13
2023-05-04T19:49:12.921Z,101188.91
2023-05-04T19:51:40.235Z,101184.56
2023-05-04T19:54:09.229Z,101182.09
2023-05-04T19:56:37.883Z,101181.22
2023-05-04T19:59:05.243Z,101184.03
2023-05-04T20:01:32.864Z,101190.56
2023-05-04T20:04:00.255Z,101188.00
2023-05-04T20:06:27.839Z,101193.38
2023-05-04T20:08:55.420Z,101190.75
2023-05-04T20:11:23.282Z,101191.09
2023-05-04T20:13:51.713Z,101195.75
2023-05-04T20:16:20.835Z,101196.25
2023-05-04T20:18:48.265Z,101189.97
2023-05-04T20:21:15.739Z,101198.41
2023-05-04T20:23:43.600Z,101200.31
2023-05-04T20:26:11.119Z,101191.59
2023-05-04T20:28:38.934Z,101201.09
2023-05-04T20:31:07.579Z,101197.06
2023-05-04T20:33:36.077Z,101197.44
2023-05-04T20:36:06.131Z,101210.91
2023-05-04T20:38:33.646Z,101203.69
2023-05-04T20:41:10.247Z,101206.78
2023-05-04T20:43:37.780Z,101197.28
2023-05-04T20:46:05.123Z,101200.06
2023-05-04T20:48:32.632Z,101194.25
2023-05-04T20:51:12.744Z,101204.00
2023-05-04T20:53:41.522Z,101201.47
2023-05-04T20:56:09.092Z,101192.94
2023-05-04T20:58:36.467Z,101192.25
2023-05-04T21:01:04.795Z,101201.00
2023-05-04T21:03:32.625Z,101196.84
2023-05-04T21:06:01.499Z,101199.31
2023-05-04T21:08:29.377Z,101199.75
2023-05-04T21:10:56.741Z,101196.19
2023-05-04T21:13:24.370Z,101200.63
2023-05-04T21:15:51.906Z,101179.41
2023-05-04T21:18:19.735Z,101201.22
2023-05-04T21:20:47.594Z,101187.75
2023-05-04T21:23:14.990Z,101179.91
2023-05-04T21:25:42.378Z,101184.09
2023-05-04T21:28:09.884Z,101180.63
2023-05-04T21:30:41.734Z,101188.56
2023-05-04T21:33:09.059Z,101179.78
2023-05-04T21:35:36.433Z,101176.06
2023-05-04T21:38:03.844Z,101171.63
2023-05-04T21:40:31.710Z,101184.28
2023-05-04T21:42:59.735Z,101194.69
2023-05-04T21:45:27.395Z,101177.50
2023-05-04T21:47:54.784Z,101196.72
2023-05-04T21:50:50.005Z,101196.28
2023-05-04T21:53:17.613Z,101193.31
2023-05-04T21:55:45.179Z,101187.78
2023-05-04T21:58:12.742Z,101191.56
2023-05-04T22:00:45.703Z,101203.13
2023-05-04T22:03:13.315Z,101198.91
2023-05-04T22:05:41.119Z,101191.41
2023-05-04T22:08:08.853Z,101199.63
2023-05-04T22:10:36.689Z,101206.94
2023-05-04T22:13:04.291Z,101206.94
2023-05-04T22:15:42.064Z,101196.31
2023-05-04T22:18:16.821Z,101209.50
2023-05-04T22:20:44.786Z,101218.03
2023-05-04T22:23:13.025Z,101219.31
2023-05-04T22:25:40.606Z,101213.63
2023-05-04T22:28:08.180Z,101210.94
2023-05-04T22:30:36.153Z,101222.44
2023-05-04T22:33:03.785Z,101221.41
2023-05-04T22:35:31.711Z,101218.63
2023-05-04T22:37:59.535Z,101220.34
2023-05-04T22:40:27.142Z,101224.41
2023-05-04T22:42:54.676Z,101219.72
2023-05-04T22:45:22.212Z,101234.59
2023-05-04T22:47:49.808Z,101235.19
2023-05-04T22:50:17.554Z,101231.34
2023-05-04T22:52:45.287Z,101217.84
2023-05-04T22:55:12.991Z,101220.94
2023-05-04T22:57:40.631Z,101234.56
2023-05-04T23:00:09.324Z,101221.72
2023-05-04T23:02:37.309Z,101223.47
2023-05-04T23:05:06.045Z,101222.66
2023-05-04T23:07:33.912Z,101226.56
2023-05-04T23:10:01.919Z,101221.47
2023-05-04T23:12:54.656Z,101231.94
2023-05-04T23:15:24.439Z,101214.84
2023-05-04T23:17:52.100Z,101217.97
2023-05-04T23:20:19.699Z,101236.66
2023-05-04T23:22:47.330Z,101230.72
2023-05-04T23:25:14.884Z,101241.84
2023-05-04T23:27:42.533Z,101236.41
2023-05-04T23:30:10.403Z,101232.03
2023-05-04T23:32:38.245Z,101224.81
2023-05-04T23:35:30.408Z,101220.44
2023-05-04T23:37:58.158Z,101219.34
2023-05-04T23:40:25.804Z,101210.06
2023-05-04T23:42:53.343Z,101217.63
2023-05-04T23:45:20.973Z,101218.22
2023-05-04T23:47:48.721Z,101219.50
2023-05-04T23:50:16.473Z,101225.06
2023-05-04T23:52:44.770Z,101212.66
2023-05-04T23:55:12.406Z,101218.91
2023-05-04T23:57:43.108Z,101202.06
